^^
Saratoga-Weather Station Historical Data
Daily Summary for January 18, 2021 Units:  English    Metric   Both
Daily Weekly Monthly Yearly Custom
  High: Low: Average:
Temperature: 36.5 °F 36 °F 36.3 °F
Dew Point: 34.5 °F 33.8 °F 34.3 °F
Humidity: 93% 92% 93%
Wind Speed: 8.9mph 0.9mph 4.5mph
Wind Gust: 16mph - -
Wind- - West
Pressure: 30.3 in 30.3 in -
Precipitation: 0.01 in    
Historical Graphs
 
 
Tabular Data for January 18, 2021
Time Temperature Dew Point Pressure Wind Wind Speed Wind Gust Humidity Rainfall Rate (Hourly) solar
00:03 36.3 °F 34.5 °F 30.3 in WSW 4 mph 5 mph 93% 0.02 in 0 W/m2
00:08 36.3 °F 34.5 °F 30.3 in West 0.9 mph 7 mph 93% 0.01 in 0 W/m2
00:13 36.3 °F 34.5 °F 30.3 in NW 2.9 mph 8 mph 93% 0.01 in 0 W/m2
00:18 36.3 °F 34.2 °F 30.3 in West 8.9 mph 10 mph 92% 0.01 in 0 W/m2
00:23 36.3 °F 34.2 °F 30.3 in WSW 8.1 mph 11 mph 92% 0.01 in 0 W/m2
00:28 36.5 °F 34.3 °F 30.3 in West 4 mph 10 mph 92% 0.01 in 0 W/m2
00:33 36.5 °F 34.3 °F 30.3 in West 2.9 mph 9 mph 92% 0.01 in 0 W/m2
00:38 36.5 °F 34.3 °F 30.3 in West 4 mph 11 mph 92% 0.01 in 0 W/m2
00:43 36.5 °F 34.3 °F 30.3 in WNW 2.9 mph 9 mph 92% 0.01 in 0 W/m2
00:48 36.3 °F 34.2 °F 30.3 in WSW 4.9 mph 9 mph 92% 0.01 in 0 W/m2
00:53 36.3 °F 34.2 °F 30.3 in West 6 mph 13 mph 92% 0.01 in 0 W/m2
00:58 36.3 °F 34.2 °F 30.3 in WNW 6 mph 15 mph 92% 0.01 in 0 W/m2
01:03 36.3 °F 34.2 °F 30.3 in WSW 4.9 mph 9 mph 92% 0 in 0 W/m2
01:08 36.3 °F 34.2 °F 30.3 in West 6.9 mph 13 mph 92% 0 in 0 W/m2
01:13 36.3 °F 34.2 °F 30.3 in WSW 8.1 mph 10 mph 92% 0 in 0 W/m2
01:18 36.1 °F 34 °F 30.3 in WSW 2.9 mph 9 mph 92% 0 in 0 W/m2
01:23 36.1 °F 34 °F 30.3 in SW 2.9 mph 16 mph 92% 0 in 0 W/m2
01:28 36 °F 33.8 °F 30.3 in West 2 mph 8 mph 92% 0 in 0 W/m2
01:33 36 °F 34.2 °F 30.3 in West 2 mph 14 mph 93% 0 in 0 W/m2
01:38 36.1 °F 34.3 °F 30.3 in WNW 4 mph 10 mph 93% 0 in 0 W/m2
01:43 36.1 °F 34.3 °F 30.3 in SW 4.9 mph 11 mph 93% 0 in 0 W/m2
01:48 36.1 °F 34.3 °F 30.3 in WNW 4 mph 8 mph 93% 0 in 0 W/m2
01:53 36 °F 34.2 °F 30.3 in WNW 4 mph 13 mph 93% 0 in 0 W/m2
01:58 36 °F 34.2 °F 30.3 in WNW 4 mph 8 mph 93% 0 in 0 W/m2
02:03 36.1 °F 34.3 °F 30.3 in West 6.9 mph 13 mph 93% 0 in 0 W/m2
02:08 36.1 °F 34.3 °F 30.3 in SW 4.9 mph 14 mph 93% 0 in 0 W/m2
02:13 36.3 °F 34.5 °F 30.3 in West 4 mph 11 mph 93% 0 in 0 W/m2
02:18 36.3 °F 34.5 °F 30.3 in SW 4.9 mph 14 mph 93% 0 in 0 W/m2
02:23 36.3 °F 34.5 °F 30.3 in West 6 mph 12 mph 93% 0 in 0 W/m2
02:28 36.3 °F 34.5 °F 30.3 in WNW 6 mph 10 mph 93% 0 in 0 W/m2
02:33 36.1 °F 34.3 °F 30.3 in WNW 2.9 mph 12 mph 93% 0 in 0 W/m2
02:38 36.1 °F 34.3 °F 30.3 in SW 4.9 mph 10 mph 93% 0 in 0 W/m2
02:43 36.1 °F 34.3 °F 30.3 in WNW 6.9 mph 12 mph 93% 0 in 0 W/m2
02:48 36.1 °F 34.3 °F 30.3 in WNW 2.9 mph 7 mph 93% 0 in 0 W/m2
02:53 36.1 °F 34.3 °F 30.3 in West 2.9 mph 6 mph 93% 0 in 0 W/m2
02:58 36.1 °F 34.3 °F 30.3 in WNW 2 mph 8 mph 93% 0 in 0 W/m2
03:03 36.1 °F 34.3 °F 30.3 in WSW 4.9 mph 8 mph 93% 0 in 0 W/m2
Juneau County Weather
Compliments of Weather Underground - 2 mb